Terminal Aerodrome Forecast
Issued by NWS Billings, MT

Home | Current Version | Previous Version | Text Only | Print | Product List | Glossary Off
Versions: 1 2 3 4 5 6 7 8 9 10 11 12

000
FTUS45 KBYZ 242337
TAFMLS
TAF
KMLS 242337Z 2500/2524 32021G32KT P6SM SCT060
     FM250300 33010KT P6SM SCT100
     FM250900 25007KT P6SM BKN100=

USA.gov is the U.S. government's official web portal to all federal, state and local government web resources and services.